sensor_id;sensor_type;location;lat;lon;timestamp;P1;durP1;ratioP1;P2;durP2;ratioP2
58083;SDS011;43882;51.550;11.858;2022-10-22T00:01:41;20.77;;;8.88;;
58083;SDS011;43882;51.550;11.858;2022-10-22T00:04:07;17.50;;;7.50;;
58083;SDS011;43882;51.550;11.858;2022-10-22T00:06:33;18.77;;;7.43;;
58083;SDS011;43882;51.550;11.858;2022-10-22T00:08:59;18.30;;;6.97;;
58083;SDS011;43882;51.550;11.858;2022-10-22T00:11:26;19.67;;;9.00;;
58083;SDS011;43882;51.550;11.858;2022-10-22T00:13:52;18.25;;;8.90;;
58083;SDS011;43882;51.550;11.858;2022-10-22T00:16:18;18.80;;;8.02;;
58083;SDS011;43882;51.550;11.858;2022-10-22T00:18:44;18.85;;;7.72;;
58083;SDS011;43882;51.550;11.858;2022-10-22T00:21:10;19.30;;;7.53;;
58083;SDS011;43882;51.550;11.858;2022-10-22T00:23:39;17.58;;;6.75;;
58083;SDS011;43882;51.550;11.858;2022-10-22T00:26:06;17.50;;;7.20;;
58083;SDS011;43882;51.550;11.858;2022-10-22T00:28:33;19.05;;;7.03;;
58083;SDS011;43882;51.550;11.858;2022-10-22T00:30:59;18.25;;;7.55;;
58083;SDS011;43882;51.550;11.858;2022-10-22T00:33:26;17.08;;;6.60;;
58083;SDS011;43882;51.550;11.858;2022-10-22T00:35:53;18.58;;;7.20;;
58083;SDS011;43882;51.550;11.858;2022-10-22T00:38:19;17.95;;;6.82;;
58083;SDS011;43882;51.550;11.858;2022-10-22T00:40:45;17.63;;;7.03;;
58083;SDS011;43882;51.550;11.858;2022-10-22T00:43:12;17.60;;;6.90;;
58083;SDS011;43882;51.550;11.858;2022-10-22T00:45:39;17.77;;;7.13;;
58083;SDS011;43882;51.550;11.858;2022-10-22T00:48:06;17.48;;;7.20;;
58083;SDS011;43882;51.550;11.858;2022-10-22T00:50:47;17.40;;;7.40;;
58083;SDS011;43882;51.550;11.858;2022-10-22T00:53:33;16.98;;;6.55;;
58083;SDS011;43882;51.550;11.858;2022-10-22T00:56:08;17.92;;;7.20;;
58083;SDS011;43882;51.550;11.858;2022-10-22T00:58:35;17.35;;;7.07;;
58083;SDS011;43882;51.550;11.858;2022-10-22T01:01:04;18.83;;;6.90;;
58083;SDS011;43882;51.550;11.858;2022-10-22T01:03:31;18.92;;;7.82;;
58083;SDS011;43882;51.550;11.858;2022-10-22T01:05:58;19.27;;;8.13;;
58083;SDS011;43882;51.550;11.858;2022-10-22T01:08:27;19.90;;;7.72;;
58083;SDS011;43882;51.550;11.858;2022-10-22T01:19:24;18.45;;;7.80;;
58083;SDS011;43882;51.550;11.858;2022-10-22T01:30:25;17.63;;;7.15;;
58083;SDS011;43882;51.550;11.858;2022-10-22T01:32:53;18.95;;;7.50;;
58083;SDS011;43882;51.550;11.858;2022-10-22T01:35:24;17.58;;;7.55;;
58083;SDS011;43882;51.550;11.858;2022-10-22T01:37:57;18.60;;;7.85;;
58083;SDS011;43882;51.550;11.858;2022-10-22T01:40:26;19.03;;;8.10;;
58083;SDS011;43882;51.550;11.858;2022-10-22T01:43:00;17.50;;;7.00;;
58083;SDS011;43882;51.550;11.858;2022-10-22T01:45:50;18.10;;;6.97;;
58083;SDS011;43882;51.550;11.858;2022-10-22T02:06:41;19.67;;;8.07;;
58083;SDS011;43882;51.550;11.858;2022-10-22T02:09:08;21.10;;;7.60;;
58083;SDS011;43882;51.550;11.858;2022-10-22T02:11:35;17.95;;;7.32;;
58083;SDS011;43882;51.550;11.858;2022-10-22T02:14:02;17.67;;;6.93;;
58083;SDS011;43882;51.550;11.858;2022-10-22T02:16:33;18.15;;;6.82;;
58083;SDS011;43882;51.550;11.858;2022-10-22T02:19:03;19.77;;;7.60;;
58083;SDS011;43882;51.550;11.858;2022-10-22T02:21:33;18.05;;;7.63;;
58083;SDS011;43882;51.550;11.858;2022-10-22T02:23:59;18.27;;;7.55;;
58083;SDS011;43882;51.550;11.858;2022-10-22T02:26:30;19.20;;;8.07;;
58083;SDS011;43882;51.550;11.858;2022-10-22T02:29:20;17.90;;;7.55;;
58083;SDS011;43882;51.550;11.858;2022-10-22T02:31:52;18.70;;;7.97;;
58083;SDS011;43882;51.550;11.858;2022-10-22T02:34:20;19.38;;;7.93;;
58083;SDS011;43882;51.550;11.858;2022-10-22T02:36:47;18.88;;;8.30;;
58083;SDS011;43882;51.550;11.858;2022-10-22T02:39:14;19.42;;;7.82;;
58083;SDS011;43882;51.550;11.858;2022-10-22T02:41:40;18.65;;;7.45;;
58083;SDS011;43882;51.550;11.858;2022-10-22T02:44:08;18.50;;;7.78;;
58083;SDS011;43882;51.550;11.858;2022-10-22T02:46:34;19.30;;;8.10;;
58083;SDS011;43882;51.550;11.858;2022-10-22T02:49:01;18.13;;;7.70;;
58083;SDS011;43882;51.550;11.858;2022-10-22T02:51:27;18.77;;;7.32;;
58083;SDS011;43882;51.550;11.858;2022-10-22T02:53:54;17.77;;;7.30;;
58083;SDS011;43882;51.550;11.858;2022-10-22T02:56:20;18.27;;;7.32;;
58083;SDS011;43882;51.550;11.858;2022-10-22T02:58:46;18.20;;;7.88;;
58083;SDS011;43882;51.550;11.858;2022-10-22T03:01:12;17.63;;;7.03;;
58083;SDS011;43882;51.550;11.858;2022-10-22T03:03:38;19.42;;;7.40;;
58083;SDS011;43882;51.550;11.858;2022-10-22T03:06:04;18.90;;;8.20;;
58083;SDS011;43882;51.550;11.858;2022-10-22T03:08:30;19.13;;;7.90;;
58083;SDS011;43882;51.550;11.858;2022-10-22T03:10:56;18.92;;;8.00;;
58083;SDS011;43882;51.550;11.858;2022-10-22T03:13:22;17.92;;;7.10;;
58083;SDS011;43882;51.550;11.858;2022-10-22T03:15:49;18.20;;;7.03;;
58083;SDS011;43882;51.550;11.858;2022-10-22T03:18:15;19.48;;;7.60;;
58083;SDS011;43882;51.550;11.858;2022-10-22T03:20:42;20.10;;;7.93;;
58083;SDS011;43882;51.550;11.858;2022-10-22T03:23:08;18.30;;;8.00;;
58083;SDS011;43882;51.550;11.858;2022-10-22T03:25:35;18.67;;;7.85;;
58083;SDS011;43882;51.550;11.858;2022-10-22T03:28:06;19.10;;;7.38;;
58083;SDS011;43882;51.550;11.858;2022-10-22T03:30:33;18.20;;;7.38;;
58083;SDS011;43882;51.550;11.858;2022-10-22T03:32:59;18.63;;;7.72;;
58083;SDS011;43882;51.550;11.858;2022-10-22T03:35:25;17.20;;;7.10;;
58083;SDS011;43882;51.550;11.858;2022-10-22T03:37:51;19.63;;;8.02;;
58083;SDS011;43882;51.550;11.858;2022-10-22T03:40:18;18.45;;;7.78;;
58083;SDS011;43882;51.550;11.858;2022-10-22T03:42:45;19.42;;;7.90;;
58083;SDS011;43882;51.550;11.858;2022-10-22T03:45:11;18.48;;;6.93;;
58083;SDS011;43882;51.550;11.858;2022-10-22T03:47:37;18.40;;;7.57;;
58083;SDS011;43882;51.550;11.858;2022-10-22T03:50:04;18.85;;;7.43;;
58083;SDS011;43882;51.550;11.858;2022-10-22T03:52:37;20.80;;;8.40;;
58083;SDS011;43882;51.550;11.858;2022-10-22T03:55:04;21.35;;;9.00;;
58083;SDS011;43882;51.550;11.858;2022-10-22T03:57:31;21.42;;;8.75;;
58083;SDS011;43882;51.550;11.858;2022-10-22T03:59:57;19.58;;;8.45;;
58083;SDS011;43882;51.550;11.858;2022-10-22T04:02:23;20.00;;;8.30;;
58083;SDS011;43882;51.550;11.858;2022-10-22T04:04:49;19.60;;;7.82;;
58083;SDS011;43882;51.550;11.858;2022-10-22T04:07:16;19.42;;;8.63;;
58083;SDS011;43882;51.550;11.858;2022-10-22T04:09:42;20.70;;;8.35;;
58083;SDS011;43882;51.550;11.858;2022-10-22T04:12:08;19.25;;;8.15;;
58083;SDS011;43882;51.550;11.858;2022-10-22T04:14:34;27.95;;;13.57;;
58083;SDS011;43882;51.550;11.858;2022-10-22T04:17:00;24.85;;;11.55;;
58083;SDS011;43882;51.550;11.858;2022-10-22T04:19:26;25.08;;;11.73;;
58083;SDS011;43882;51.550;11.858;2022-10-22T04:21:52;21.85;;;9.32;;
58083;SDS011;43882;51.550;11.858;2022-10-22T04:24:18;22.83;;;9.52;;
58083;SDS011;43882;51.550;11.858;2022-10-22T04:26:44;21.45;;;9.23;;
58083;SDS011;43882;51.550;11.858;2022-10-22T04:29:11;20.45;;;8.57;;
58083;SDS011;43882;51.550;11.858;2022-10-22T04:31:37;22.63;;;9.23;;
58083;SDS011;43882;51.550;11.858;2022-10-22T04:34:03;20.60;;;9.00;;
58083;SDS011;43882;51.550;11.858;2022-10-22T04:36:29;21.42;;;9.38;;
58083;SDS011;43882;51.550;11.858;2022-10-22T04:38:57;19.92;;;8.27;;
58083;SDS011;43882;51.550;11.858;2022-10-22T04:41:33;21.67;;;9.45;;
58083;SDS011;43882;51.550;11.858;2022-10-22T04:44:02;21.05;;;9.40;;
58083;SDS011;43882;51.550;11.858;2022-10-22T04:46:30;20.92;;;9.40;;
58083;SDS011;43882;51.550;11.858;2022-10-22T04:48:57;22.27;;;9.30;;
58083;SDS011;43882;51.550;11.858;2022-10-22T04:51:24;23.05;;;10.05;;
58083;SDS011;43882;51.550;11.858;2022-10-22T04:53:51;22.95;;;10.40;;
58083;SDS011;43882;51.550;11.858;2022-10-22T04:56:18;20.70;;;9.02;;
58083;SDS011;43882;51.550;11.858;2022-10-22T04:58:48;21.75;;;10.07;;
58083;SDS011;43882;51.550;11.858;2022-10-22T05:01:18;22.00;;;9.27;;
58083;SDS011;43882;51.550;11.858;2022-10-22T05:03:54;21.00;;;9.80;;
58083;SDS011;43882;51.550;11.858;2022-10-22T05:06:22;21.65;;;9.70;;
58083;SDS011;43882;51.550;11.858;2022-10-22T05:08:56;24.60;;;10.50;;
58083;SDS011;43882;51.550;11.858;2022-10-22T05:11:25;22.73;;;9.75;;
58083;SDS011;43882;51.550;11.858;2022-10-22T05:13:56;21.33;;;9.27;;
58083;SDS011;43882;51.550;11.858;2022-10-22T05:16:24;22.75;;;10.85;;
58083;SDS011;43882;51.550;11.858;2022-10-22T05:18:50;20.77;;;9.25;;
58083;SDS011;43882;51.550;11.858;2022-10-22T05:21:26;21.17;;;9.30;;
58083;SDS011;43882;51.550;11.858;2022-10-22T05:23:53;22.35;;;9.90;;
58083;SDS011;43882;51.550;11.858;2022-10-22T05:26:23;22.25;;;9.98;;
58083;SDS011;43882;51.550;11.858;2022-10-22T05:28:50;23.88;;;9.90;;
58083;SDS011;43882;51.550;11.858;2022-10-22T05:31:16;23.02;;;10.77;;
58083;SDS011;43882;51.550;11.858;2022-10-22T05:33:43;22.05;;;10.40;;
58083;SDS011;43882;51.550;11.858;2022-10-22T05:36:13;23.80;;;10.52;;
58083;SDS011;43882;51.550;11.858;2022-10-22T05:38:42;25.02;;;11.48;;
58083;SDS011;43882;51.550;11.858;2022-10-22T05:41:09;22.33;;;10.60;;
58083;SDS011;43882;51.550;11.858;2022-10-22T05:43:39;23.65;;;10.27;;
58083;SDS011;43882;51.550;11.858;2022-10-22T05:46:06;23.77;;;10.38;;
58083;SDS011;43882;51.550;11.858;2022-10-22T05:48:40;25.83;;;11.63;;
58083;SDS011;43882;51.550;11.858;2022-10-22T05:51:07;24.35;;;11.70;;
58083;SDS011;43882;51.550;11.858;2022-10-22T05:53:36;24.33;;;11.25;;
58083;SDS011;43882;51.550;11.858;2022-10-22T05:56:05;24.80;;;12.40;;
58083;SDS011;43882;51.550;11.858;2022-10-22T05:58:38;24.92;;;11.18;;
58083;SDS011;43882;51.550;11.858;2022-10-22T06:01:12;22.80;;;10.80;;
58083;SDS011;43882;51.550;11.858;2022-10-22T06:03:40;24.20;;;11.15;;
58083;SDS011;43882;51.550;11.858;2022-10-22T06:06:20;24.42;;;11.32;;
58083;SDS011;43882;51.550;11.858;2022-10-22T06:09:05;23.27;;;10.25;;
58083;SDS011;43882;51.550;11.858;2022-10-22T06:11:35;22.70;;;9.80;;
58083;SDS011;43882;51.550;11.858;2022-10-22T06:14:02;23.85;;;10.45;;
58083;SDS011;43882;51.550;11.858;2022-10-22T06:16:29;24.60;;;11.23;;
58083;SDS011;43882;51.550;11.858;2022-10-22T06:18:57;24.27;;;11.90;;
58083;SDS011;43882;51.550;11.858;2022-10-22T06:21:24;22.50;;;10.80;;
58083;SDS011;43882;51.550;11.858;2022-10-22T06:23:51;24.38;;;11.50;;
58083;SDS011;43882;51.550;11.858;2022-10-22T06:26:17;24.40;;;11.75;;
58083;SDS011;43882;51.550;11.858;2022-10-22T06:28:43;25.30;;;11.80;;
58083;SDS011;43882;51.550;11.858;2022-10-22T06:31:09;23.30;;;11.07;;
58083;SDS011;43882;51.550;11.858;2022-10-22T06:33:35;27.00;;;11.80;;
58083;SDS011;43882;51.550;11.858;2022-10-22T06:36:18;26.73;;;12.90;;
58083;SDS011;43882;51.550;11.858;2022-10-22T06:38:45;26.60;;;12.75;;
58083;SDS011;43882;51.550;11.858;2022-10-22T06:41:12;28.58;;;13.25;;
58083;SDS011;43882;51.550;11.858;2022-10-22T06:43:40;27.83;;;12.57;;
58083;SDS011;43882;51.550;11.858;2022-10-22T06:46:09;27.80;;;12.70;;
58083;SDS011;43882;51.550;11.858;2022-10-22T06:48:36;29.45;;;13.13;;
58083;SDS011;43882;51.550;11.858;2022-10-22T06:51:05;27.45;;;12.63;;
58083;SDS011;43882;51.550;11.858;2022-10-22T06:53:32;28.40;;;12.85;;
58083;SDS011;43882;51.550;11.858;2022-10-22T06:56:03;28.33;;;12.98;;
58083;SDS011;43882;51.550;11.858;2022-10-22T06:58:33;28.70;;;13.23;;
58083;SDS011;43882;51.550;11.858;2022-10-22T07:01:00;29.75;;;14.00;;
58083;SDS011;43882;51.550;11.858;2022-10-22T07:03:45;34.17;;;13.63;;
58083;SDS011;43882;51.550;11.858;2022-10-22T07:06:13;28.92;;;13.25;;
58083;SDS011;43882;51.550;11.858;2022-10-22T07:08:40;30.25;;;13.57;;
58083;SDS011;43882;51.550;11.858;2022-10-22T07:11:08;31.42;;;14.15;;
58083;SDS011;43882;51.550;11.858;2022-10-22T07:13:34;28.92;;;12.80;;
58083;SDS011;43882;51.550;11.858;2022-10-22T07:16:01;27.80;;;13.20;;
58083;SDS011;43882;51.550;11.858;2022-10-22T07:18:27;27.10;;;13.40;;
58083;SDS011;43882;51.550;11.858;2022-10-22T07:20:53;26.80;;;12.88;;
58083;SDS011;43882;51.550;11.858;2022-10-22T07:23:19;26.05;;;11.77;;
58083;SDS011;43882;51.550;11.858;2022-10-22T07:25:46;28.38;;;12.90;;
58083;SDS011;43882;51.550;11.858;2022-10-22T07:28:12;28.55;;;12.55;;
58083;SDS011;43882;51.550;11.858;2022-10-22T07:30:38;25.02;;;11.88;;
58083;SDS011;43882;51.550;11.858;2022-10-22T07:33:05;25.85;;;12.15;;
58083;SDS011;43882;51.550;11.858;2022-10-22T07:35:31;28.92;;;12.80;;
58083;SDS011;43882;51.550;11.858;2022-10-22T07:37:58;26.50;;;12.75;;
58083;SDS011;43882;51.550;11.858;2022-10-22T07:40:24;25.15;;;12.38;;
58083;SDS011;43882;51.550;11.858;2022-10-22T07:42:50;26.20;;;12.20;;
58083;SDS011;43882;51.550;11.858;2022-10-22T07:45:17;26.20;;;12.02;;
58083;SDS011;43882;51.550;11.858;2022-10-22T07:47:45;28.45;;;12.05;;
58083;SDS011;43882;51.550;11.858;2022-10-22T07:50:12;26.75;;;12.10;;
58083;SDS011;43882;51.550;11.858;2022-10-22T07:52:38;26.38;;;12.30;;
58083;SDS011;43882;51.550;11.858;2022-10-22T07:55:04;23.77;;;11.30;;
58083;SDS011;43882;51.550;11.858;2022-10-22T07:57:30;26.98;;;12.23;;
58083;SDS011;43882;51.550;11.858;2022-10-22T07:59:57;24.60;;;11.23;;
58083;SDS011;43882;51.550;11.858;2022-10-22T08:02:23;24.73;;;11.55;;
58083;SDS011;43882;51.550;11.858;2022-10-22T08:04:49;25.52;;;10.93;;
58083;SDS011;43882;51.550;11.858;2022-10-22T08:07:16;25.52;;;11.63;;
58083;SDS011;43882;51.550;11.858;2022-10-22T08:09:42;23.70;;;10.85;;
58083;SDS011;43882;51.550;11.858;2022-10-22T08:12:09;24.60;;;12.05;;
58083;SDS011;43882;51.550;11.858;2022-10-22T08:14:35;24.75;;;11.65;;
58083;SDS011;43882;51.550;11.858;2022-10-22T08:17:01;26.05;;;12.20;;
58083;SDS011;43882;51.550;11.858;2022-10-22T08:19:27;24.15;;;12.05;;
58083;SDS011;43882;51.550;11.858;2022-10-22T08:21:55;23.90;;;11.65;;
58083;SDS011;43882;51.550;11.858;2022-10-22T08:24:21;22.95;;;11.10;;
58083;SDS011;43882;51.550;11.858;2022-10-22T08:26:47;25.35;;;11.20;;
58083;SDS011;43882;51.550;11.858;2022-10-22T08:29:13;23.42;;;10.82;;
58083;SDS011;43882;51.550;11.858;2022-10-22T08:31:39;22.38;;;10.63;;
58083;SDS011;43882;51.550;11.858;2022-10-22T08:34:05;21.98;;;10.02;;
58083;SDS011;43882;51.550;11.858;2022-10-22T08:36:32;21.73;;;9.52;;
58083;SDS011;43882;51.550;11.858;2022-10-22T08:38:58;21.52;;;10.32;;
58083;SDS011;43882;51.550;11.858;2022-10-22T08:41:24;25.30;;;10.85;;
58083;SDS011;43882;51.550;11.858;2022-10-22T08:49:28;22.95;;;10.10;;
58083;SDS011;43882;51.550;11.858;2022-10-22T08:51:59;23.05;;;9.80;;
58083;SDS011;43882;51.550;11.858;2022-10-22T09:08:13;20.15;;;8.85;;
58083;SDS011;43882;51.550;11.858;2022-10-22T09:10:49;19.27;;;8.48;;
58083;SDS011;43882;51.550;11.858;2022-10-22T09:13:20;18.92;;;8.57;;
58083;SDS011;43882;51.550;11.858;2022-10-22T09:15:48;19.25;;;8.48;;
58083;SDS011;43882;51.550;11.858;2022-10-22T09:21:15;20.60;;;8.27;;
58083;SDS011;43882;51.550;11.858;2022-10-22T09:24:24;19.55;;;8.93;;
58083;SDS011;43882;51.550;11.858;2022-10-22T09:26:59;19.48;;;8.48;;
58083;SDS011;43882;51.550;11.858;2022-10-22T09:29:30;18.08;;;7.15;;
58083;SDS011;43882;51.550;11.858;2022-10-22T09:31:57;19.95;;;6.95;;
58083;SDS011;43882;51.550;11.858;2022-10-22T09:34:23;18.27;;;7.28;;
58083;SDS011;43882;51.550;11.858;2022-10-22T09:37:00;24.80;;;7.43;;
58083;SDS011;43882;51.550;11.858;2022-10-22T09:39:31;17.40;;;6.65;;
58083;SDS011;43882;51.550;11.858;2022-10-22T09:42:02;16.95;;;6.75;;
58083;SDS011;43882;51.550;11.858;2022-10-22T09:44:28;18.73;;;6.85;;
58083;SDS011;43882;51.550;11.858;2022-10-22T09:46:58;16.70;;;5.97;;
58083;SDS011;43882;51.550;11.858;2022-10-22T09:49:28;16.80;;;5.65;;
58083;SDS011;43882;51.550;11.858;2022-10-22T09:51:57;18.33;;;5.82;;
58083;SDS011;43882;51.550;11.858;2022-10-22T09:57:04;15.95;;;5.95;;
58083;SDS011;43882;51.550;11.858;2022-10-22T09:59:41;15.63;;;5.50;;
58083;SDS011;43882;51.550;11.858;2022-10-22T10:02:17;15.77;;;5.85;;
58083;SDS011;43882;51.550;11.858;2022-10-22T10:04:48;16.58;;;5.50;;
58083;SDS011;43882;51.550;11.858;2022-10-22T10:07:18;15.35;;;5.32;;
58083;SDS011;43882;51.550;11.858;2022-10-22T10:09:48;16.83;;;5.57;;
58083;SDS011;43882;51.550;11.858;2022-10-22T10:17:53;18.33;;;5.95;;
58083;SDS011;43882;51.550;11.858;2022-10-22T10:36:35;16.83;;;5.50;;
58083;SDS011;43882;51.550;11.858;2022-10-22T10:42:35;16.77;;;5.50;;
58083;SDS011;43882;51.550;11.858;2022-10-22T10:45:16;16.30;;;5.40;;
58083;SDS011;43882;51.550;11.858;2022-10-22T10:50:55;17.25;;;5.07;;
58083;SDS011;43882;51.550;11.858;2022-10-22T10:56:35;14.68;;;4.32;;
58083;SDS011;43882;51.550;11.858;2022-10-22T11:02:09;13.02;;;3.67;;
58083;SDS011;43882;51.550;11.858;2022-10-22T11:05:06;11.67;;;3.33;;
58083;SDS011;43882;51.550;11.858;2022-10-22T11:13:20;13.10;;;3.40;;
58083;SDS011;43882;51.550;11.858;2022-10-22T11:16:20;13.52;;;3.42;;
58083;SDS011;43882;51.550;11.858;2022-10-22T11:18:53;12.82;;;4.07;;
58083;SDS011;43882;51.550;11.858;2022-10-22T11:21:33;12.35;;;3.38;;
58083;SDS011;43882;51.550;11.858;2022-10-22T11:24:25;11.32;;;3.30;;
58083;SDS011;43882;51.550;11.858;2022-10-22T11:27:12;11.63;;;3.05;;
58083;SDS011;43882;51.550;11.858;2022-10-22T11:29:54;11.25;;;3.30;;
58083;SDS011;43882;51.550;11.858;2022-10-22T11:32:35;11.10;;;3.30;;
58083;SDS011;43882;51.550;11.858;2022-10-22T11:35:02;11.38;;;2.80;;
58083;SDS011;43882;51.550;11.858;2022-10-22T11:37:31;10.38;;;2.80;;
58083;SDS011;43882;51.550;11.858;2022-10-22T11:40:18;14.55;;;3.70;;
58083;SDS011;43882;51.550;11.858;2022-10-22T11:43:02;10.07;;;2.55;;
58083;SDS011;43882;51.550;11.858;2022-10-22T11:45:30;10.50;;;2.67;;
58083;SDS011;43882;51.550;11.858;2022-10-22T11:50:48;10.67;;;2.80;;
58083;SDS011;43882;51.550;11.858;2022-10-22T11:53:20;10.23;;;2.70;;
58083;SDS011;43882;51.550;11.858;2022-10-22T11:55:49;8.65;;;2.65;;
58083;SDS011;43882;51.550;11.858;2022-10-22T12:00:52;11.90;;;3.00;;
58083;SDS011;43882;51.550;11.858;2022-10-22T12:11:16;8.88;;;2.60;;
58083;SDS011;43882;51.550;11.858;2022-10-22T12:13:52;8.57;;;2.70;;
58083;SDS011;43882;51.550;11.858;2022-10-22T12:17:13;9.63;;;2.80;;
58083;SDS011;43882;51.550;11.858;2022-10-22T12:21:47;10.55;;;2.70;;
58083;SDS011;43882;51.550;11.858;2022-10-22T12:24:20;9.85;;;2.50;;
58083;SDS011;43882;51.550;11.858;2022-10-22T12:26:48;6.88;;;2.28;;
58083;SDS011;43882;51.550;11.858;2022-10-22T12:29:16;10.95;;;2.70;;
58083;SDS011;43882;51.550;11.858;2022-10-22T12:31:46;12.32;;;2.70;;
58083;SDS011;43882;51.550;11.858;2022-10-22T12:34:13;11.43;;;2.92;;
58083;SDS011;43882;51.550;11.858;2022-10-22T12:36:41;9.52;;;2.63;;
58083;SDS011;43882;51.550;11.858;2022-10-22T12:39:14;9.77;;;2.80;;
58083;SDS011;43882;51.550;11.858;2022-10-22T12:41:45;9.70;;;2.78;;
58083;SDS011;43882;51.550;11.858;2022-10-22T12:44:12;10.32;;;2.55;;
58083;SDS011;43882;51.550;11.858;2022-10-22T12:46:43;8.13;;;2.50;;
58083;SDS011;43882;51.550;11.858;2022-10-22T12:49:18;8.73;;;2.50;;
58083;SDS011;43882;51.550;11.858;2022-10-22T12:51:45;11.40;;;2.83;;
58083;SDS011;43882;51.550;11.858;2022-10-22T12:54:15;8.05;;;2.38;;
58083;SDS011;43882;51.550;11.858;2022-10-22T12:56:43;9.80;;;2.50;;
58083;SDS011;43882;51.550;11.858;2022-10-22T12:59:14;7.82;;;2.63;;
58083;SDS011;43882;51.550;11.858;2022-10-22T13:01:52;11.43;;;2.50;;
58083;SDS011;43882;51.550;11.858;2022-10-22T13:09:39;7.60;;;2.45;;
58083;SDS011;43882;51.550;11.858;2022-10-22T13:12:08;10.05;;;2.72;;
58083;SDS011;43882;51.550;11.858;2022-10-22T13:14:40;8.15;;;2.70;;
58083;SDS011;43882;51.550;11.858;2022-10-22T13:17:17;11.43;;;2.97;;
58083;SDS011;43882;51.550;11.858;2022-10-22T13:20:03;10.18;;;2.95;;
58083;SDS011;43882;51.550;11.858;2022-10-22T13:22:53;12.48;;;3.28;;
58083;SDS011;43882;51.550;11.858;2022-10-22T13:25:33;12.10;;;3.25;;
58083;SDS011;43882;51.550;11.858;2022-10-22T13:30:35;12.88;;;4.05;;
58083;SDS011;43882;51.550;11.858;2022-10-22T13:33:03;11.32;;;2.90;;
58083;SDS011;43882;51.550;11.858;2022-10-22T13:35:31;20.88;;;10.70;;
58083;SDS011;43882;51.550;11.858;2022-10-22T13:37:58;17.50;;;9.23;;
58083;SDS011;43882;51.550;11.858;2022-10-22T13:40:25;12.05;;;3.00;;
58083;SDS011;43882;51.550;11.858;2022-10-22T13:42:51;13.23;;;4.10;;
58083;SDS011;43882;51.550;11.858;2022-10-22T13:45:18;12.38;;;4.07;;
58083;SDS011;43882;51.550;11.858;2022-10-22T13:47:47;13.57;;;3.72;;
58083;SDS011;43882;51.550;11.858;2022-10-22T13:50:16;12.73;;;3.35;;
58083;SDS011;43882;51.550;11.858;2022-10-22T13:52:44;13.07;;;3.45;;
58083;SDS011;43882;51.550;11.858;2022-10-22T13:55:22;13.68;;;4.13;;
58083;SDS011;43882;51.550;11.858;2022-10-22T13:57:59;13.30;;;3.83;;
58083;SDS011;43882;51.550;11.858;2022-10-22T14:00:37;13.82;;;3.97;;
58083;SDS011;43882;51.550;11.858;2022-10-22T14:03:05;16.10;;;4.38;;
58083;SDS011;43882;51.550;11.858;2022-10-22T14:05:34;12.90;;;4.07;;
58083;SDS011;43882;51.550;11.858;2022-10-22T14:08:00;12.48;;;3.30;;
58083;SDS011;43882;51.550;11.858;2022-10-22T14:10:27;14.82;;;5.20;;
58083;SDS011;43882;51.550;11.858;2022-10-22T14:12:53;15.27;;;4.47;;
58083;SDS011;43882;51.550;11.858;2022-10-22T14:15:22;14.13;;;4.53;;
58083;SDS011;43882;51.550;11.858;2022-10-22T14:17:51;14.95;;;4.28;;
58083;SDS011;43882;51.550;11.858;2022-10-22T14:20:28;14.70;;;4.25;;
58083;SDS011;43882;51.550;11.858;2022-10-22T14:22:56;17.92;;;4.32;;
58083;SDS011;43882;51.550;11.858;2022-10-22T14:25:39;13.90;;;4.10;;
58083;SDS011;43882;51.550;11.858;2022-10-22T14:28:06;14.52;;;3.53;;
58083;SDS011;43882;51.550;11.858;2022-10-22T14:30:34;12.90;;;3.72;;
58083;SDS011;43882;51.550;11.858;2022-10-22T14:33:00;12.57;;;3.63;;
58083;SDS011;43882;51.550;11.858;2022-10-22T14:35:26;42.97;;;21.55;;
58083;SDS011;43882;51.550;11.858;2022-10-22T14:37:52;89.78;;;53.47;;
58083;SDS011;43882;51.550;11.858;2022-10-22T14:40:19;14.90;;;6.00;;
58083;SDS011;43882;51.550;11.858;2022-10-22T14:42:47;19.60;;;10.88;;
58083;SDS011;43882;51.550;11.858;2022-10-22T14:45:23;22.45;;;16.55;;
58083;SDS011;43882;51.550;11.858;2022-10-22T14:47:50;23.13;;;16.13;;
58083;SDS011;43882;51.550;11.858;2022-10-22T14:50:19;15.57;;;6.28;;
58083;SDS011;43882;51.550;11.858;2022-10-22T14:52:46;15.82;;;6.60;;
58083;SDS011;43882;51.550;11.858;2022-10-22T14:55:13;16.98;;;6.95;;
58083;SDS011;43882;51.550;11.858;2022-10-22T14:57:40;13.52;;;5.10;;
58083;SDS011;43882;51.550;11.858;2022-10-22T15:00:08;15.05;;;4.13;;
58083;SDS011;43882;51.550;11.858;2022-10-22T15:02:44;13.95;;;4.03;;
58083;SDS011;43882;51.550;11.858;2022-10-22T15:05:11;12.93;;;4.15;;
58083;SDS011;43882;51.550;11.858;2022-10-22T15:07:37;16.02;;;4.35;;
58083;SDS011;43882;51.550;11.858;2022-10-22T15:10:04;17.35;;;4.25;;
58083;SDS011;43882;51.550;11.858;2022-10-22T15:12:31;14.27;;;4.00;;
58083;SDS011;43882;51.550;11.858;2022-10-22T15:14:57;15.00;;;4.03;;
58083;SDS011;43882;51.550;11.858;2022-10-22T15:17:23;13.30;;;3.60;;
58083;SDS011;43882;51.550;11.858;2022-10-22T15:19:50;14.25;;;3.70;;
58083;SDS011;43882;51.550;11.858;2022-10-22T15:22:17;13.32;;;3.80;;
58083;SDS011;43882;51.550;11.858;2022-10-22T15:24:44;13.80;;;3.80;;
58083;SDS011;43882;51.550;11.858;2022-10-22T15:27:12;13.68;;;4.38;;
58083;SDS011;43882;51.550;11.858;2022-10-22T15:29:39;15.07;;;3.90;;
58083;SDS011;43882;51.550;11.858;2022-10-22T15:32:06;13.18;;;3.92;;
58083;SDS011;43882;51.550;11.858;2022-10-22T15:34:34;15.68;;;4.07;;
58083;SDS011;43882;51.550;11.858;2022-10-22T15:37:02;14.45;;;3.75;;
58083;SDS011;43882;51.550;11.858;2022-10-22T15:39:30;15.63;;;3.78;;
58083;SDS011;43882;51.550;11.858;2022-10-22T15:41:57;14.48;;;4.50;;
58083;SDS011;43882;51.550;11.858;2022-10-22T15:44:25;14.77;;;4.50;;
58083;SDS011;43882;51.550;11.858;2022-10-22T15:46:52;14.68;;;4.50;;
58083;SDS011;43882;51.550;11.858;2022-10-22T15:49:19;14.68;;;5.07;;
58083;SDS011;43882;51.550;11.858;2022-10-22T15:51:45;26.98;;;10.80;;
58083;SDS011;43882;51.550;11.858;2022-10-22T15:54:12;26.70;;;13.00;;
58083;SDS011;43882;51.550;11.858;2022-10-22T15:56:40;20.40;;;9.18;;
58083;SDS011;43882;51.550;11.858;2022-10-22T15:59:06;18.48;;;8.13;;
58083;SDS011;43882;51.550;11.858;2022-10-22T16:01:34;19.63;;;7.63;;
58083;SDS011;43882;51.550;11.858;2022-10-22T16:04:00;16.80;;;6.55;;
58083;SDS011;43882;51.550;11.858;2022-10-22T16:09:01;15.30;;;4.85;;
58083;SDS011;43882;51.550;11.858;2022-10-22T16:11:29;14.18;;;4.35;;
58083;SDS011;43882;51.550;11.858;2022-10-22T16:13:58;15.95;;;5.78;;
58083;SDS011;43882;51.550;11.858;2022-10-22T16:16:30;15.75;;;4.50;;
58083;SDS011;43882;51.550;11.858;2022-10-22T16:18:58;13.70;;;4.10;;
58083;SDS011;43882;51.550;11.858;2022-10-22T16:21:24;15.07;;;4.68;;
58083;SDS011;43882;51.550;11.858;2022-10-22T16:23:50;18.20;;;6.03;;
58083;SDS011;43882;51.550;11.858;2022-10-22T16:26:17;23.50;;;8.77;;
58083;SDS011;43882;51.550;11.858;2022-10-22T16:28:44;25.15;;;11.82;;
58083;SDS011;43882;51.550;11.858;2022-10-22T16:31:12;25.83;;;15.38;;
58083;SDS011;43882;51.550;11.858;2022-10-22T16:33:40;23.02;;;12.60;;
58083;SDS011;43882;51.550;11.858;2022-10-22T16:36:10;19.50;;;8.82;;
58083;SDS011;43882;51.550;11.858;2022-10-22T16:38:37;17.25;;;8.43;;